SBPJ

Details ICAO SBPJ (PMW)
Name Palmas, Brigadeiro L Rodrigues
Region Brazil
Timezone America/Araguaina (UTC-3.0)
Plans Departing 102
Arriving 99
Stats Elevation 772 ft / 235 m (AMSL)
Location -10.291500° -48.357000°
Runways 1
Magnetic Variation 21.342° W
Sunrise 2019-02-21 09:17:17 UTC / 2019-02-21 06:17:17 Local
Sunset 2019-02-21 21:39:49 UTC / 2019-02-21 18:39:49 Local
Advertisement - Login to hide

Runways

ID Width Length Bearing (true/mag) Surface Threshold Overrun Markings Lighting
14 148 ft / 45 m 8,190 ft / 2,496 m 123.64° / 144.99° ASPHALT 0 ft / 0 m 220 ft / 67 m PREC-APP EDGE THRESHOLD REIL-OMNI
32 148 ft / 45 m 8,190 ft / 2,496 m 303.64° / 324.98° ASPHALT 0 ft / 0 m 200 ft / 61 m PREC-APP EDGE THRESHOLD REIL-OMNI

Map

Weather


0- 5 10 15 20 25 30 35+ Temperature / °C

Clouds and Precipitation
Forecast for 2019-02-21 18:00 UTC. Updated 8 minutes ago

Ground ~20,000 ft ~40,000 ft Winds

METAR

SBPJ 211500Z 24005KT 9999 SCT030 30/22 Q1014

TAF

TAF SBPJ 211000Z 2112/2124 28005KT 9999 FEW020 TX28/2112Z TN25/2123Z BECMG 2113/2115 28005KT TS VCSH SCT009 SCT025 FEW040CB BECMG 2116/2118 NSW SCT030 FEW035TCU BECMG 2119/2121 27005KT FEW025 BECMG 2122/2124 10005KT RMK PEW

Frequencies

Tower 118.00 MHz Palmas Tower
Approach 119.00 MHz Palmas Approach
Warning: Do not use this data for real-world aviation or navigation. No guarantee of current accuracy is given.